sensor_id;sensor_type;location;lat;lon;timestamp;P1;durP1;ratioP1;P2;durP2;ratioP2
12976;SDS011;6553;48.412;9.514;2023-04-19T00:00:39;3.15;;;2.85;;
12976;SDS011;6553;48.412;9.514;2023-04-19T00:03:06;3.30;;;3.08;;
12976;SDS011;6553;48.412;9.514;2023-04-19T00:05:32;3.30;;;3.00;;
12976;SDS011;6553;48.412;9.514;2023-04-19T00:07:58;3.55;;;3.25;;
12976;SDS011;6553;48.412;9.514;2023-04-19T00:10:24;3.22;;;2.90;;
12976;SDS011;6553;48.412;9.514;2023-04-19T00:12:50;2.90;;;2.70;;
12976;SDS011;6553;48.412;9.514;2023-04-19T00:15:17;3.40;;;3.10;;
12976;SDS011;6553;48.412;9.514;2023-04-19T00:17:43;3.47;;;3.20;;
12976;SDS011;6553;48.412;9.514;2023-04-19T00:20:09;3.28;;;2.97;;
12976;SDS011;6553;48.412;9.514;2023-04-19T00:22:37;3.63;;;3.33;;
12976;SDS011;6553;48.412;9.514;2023-04-19T00:25:04;3.42;;;3.22;;
12976;SDS011;6553;48.412;9.514;2023-04-19T00:27:30;2.85;;;2.65;;
12976;SDS011;6553;48.412;9.514;2023-04-19T00:29:57;3.45;;;3.15;;
12976;SDS011;6553;48.412;9.514;2023-04-19T00:32:23;3.33;;;3.03;;
12976;SDS011;6553;48.412;9.514;2023-04-19T00:34:49;3.55;;;3.25;;
12976;SDS011;6553;48.412;9.514;2023-04-19T00:37:15;3.55;;;3.25;;
12976;SDS011;6553;48.412;9.514;2023-04-19T00:39:41;3.63;;;3.33;;
12976;SDS011;6553;48.412;9.514;2023-04-19T00:42:07;3.78;;;3.47;;
12976;SDS011;6553;48.412;9.514;2023-04-19T00:44:33;3.40;;;3.13;;
12976;SDS011;6553;48.412;9.514;2023-04-19T00:46:59;3.78;;;3.42;;
12976;SDS011;6553;48.412;9.514;2023-04-19T00:49:26;3.15;;;2.95;;
12976;SDS011;6553;48.412;9.514;2023-04-19T00:51:52;3.45;;;3.17;;
12976;SDS011;6553;48.412;9.514;2023-04-19T00:54:18;3.30;;;3.00;;
12976;SDS011;6553;48.412;9.514;2023-04-19T00:56:47;3.80;;;3.50;;
12976;SDS011;6553;48.412;9.514;2023-04-19T00:59:16;3.65;;;3.35;;
12976;SDS011;6553;48.412;9.514;2023-04-19T01:01:42;3.42;;;3.13;;
12976;SDS011;6553;48.412;9.514;2023-04-19T01:04:08;3.13;;;2.92;;
12976;SDS011;6553;48.412;9.514;2023-04-19T01:06:34;3.55;;;3.25;;
12976;SDS011;6553;48.412;9.514;2023-04-19T01:09:01;3.60;;;3.30;;
12976;SDS011;6553;48.412;9.514;2023-04-19T01:11:27;3.22;;;2.97;;
12976;SDS011;6553;48.412;9.514;2023-04-19T01:13:56;3.20;;;3.00;;
12976;SDS011;6553;48.412;9.514;2023-04-19T01:16:23;3.22;;;3.03;;
12976;SDS011;6553;48.412;9.514;2023-04-19T01:18:51;3.25;;;2.95;;
12976;SDS011;6553;48.412;9.514;2023-04-19T01:21:18;3.13;;;2.92;;
12976;SDS011;6553;48.412;9.514;2023-04-19T01:23:46;3.38;;;3.08;;
12976;SDS011;6553;48.412;9.514;2023-04-19T01:26:13;3.20;;;3.00;;
12976;SDS011;6553;48.412;9.514;2023-04-19T01:28:40;3.42;;;3.20;;
12976;SDS011;6553;48.412;9.514;2023-04-19T01:31:07;3.35;;;3.05;;
12976;SDS011;6553;48.412;9.514;2023-04-19T01:33:35;3.00;;;2.80;;
12976;SDS011;6553;48.412;9.514;2023-04-19T01:36:01;3.38;;;3.10;;
12976;SDS011;6553;48.412;9.514;2023-04-19T01:38:27;3.65;;;3.35;;
12976;SDS011;6553;48.412;9.514;2023-04-19T01:40:52;3.05;;;2.85;;
12976;SDS011;6553;48.412;9.514;2023-04-19T01:43:20;3.70;;;3.40;;
12976;SDS011;6553;48.412;9.514;2023-04-19T01:45:46;3.08;;;2.88;;
12976;SDS011;6553;48.412;9.514;2023-04-19T01:48:12;3.10;;;2.90;;
12976;SDS011;6553;48.412;9.514;2023-04-19T01:50:38;3.28;;;3.03;;
12976;SDS011;6553;48.412;9.514;2023-04-19T01:53:03;3.42;;;3.13;;
12976;SDS011;6553;48.412;9.514;2023-04-19T01:55:31;3.22;;;3.03;;
12976;SDS011;6553;48.412;9.514;2023-04-19T01:57:56;2.85;;;2.65;;
12976;SDS011;6553;48.412;9.514;2023-04-19T02:00:22;3.28;;;2.88;;
12976;SDS011;6553;48.412;9.514;2023-04-19T02:02:48;3.45;;;3.22;;
12976;SDS011;6553;48.412;9.514;2023-04-19T02:05:14;3.60;;;3.30;;
12976;SDS011;6553;48.412;9.514;2023-04-19T02:07:40;3.53;;;3.33;;
12976;SDS011;6553;48.412;9.514;2023-04-19T02:10:08;3.35;;;2.90;;
12976;SDS011;6553;48.412;9.514;2023-04-19T02:12:35;3.20;;;3.00;;
12976;SDS011;6553;48.412;9.514;2023-04-19T02:15:01;3.08;;;2.88;;
12976;SDS011;6553;48.412;9.514;2023-04-19T02:17:28;2.80;;;2.60;;
12976;SDS011;6553;48.412;9.514;2023-04-19T02:19:55;3.38;;;3.10;;
12976;SDS011;6553;48.412;9.514;2023-04-19T02:22:21;3.10;;;2.90;;
12976;SDS011;6553;48.412;9.514;2023-04-19T02:24:48;3.05;;;2.85;;
12976;SDS011;6553;48.412;9.514;2023-04-19T02:27:14;3.10;;;2.90;;
12976;SDS011;6553;48.412;9.514;2023-04-19T02:29:41;3.72;;;3.42;;
12976;SDS011;6553;48.412;9.514;2023-04-19T02:32:08;3.05;;;2.85;;
12976;SDS011;6553;48.412;9.514;2023-04-19T02:34:36;3.15;;;2.95;;
12976;SDS011;6553;48.412;9.514;2023-04-19T02:37:03;3.60;;;3.30;;
12976;SDS011;6553;48.412;9.514;2023-04-19T02:39:29;3.20;;;3.00;;
12976;SDS011;6553;48.412;9.514;2023-04-19T02:41:55;3.20;;;3.00;;
12976;SDS011;6553;48.412;9.514;2023-04-19T02:44:21;3.60;;;3.30;;
12976;SDS011;6553;48.412;9.514;2023-04-19T02:46:48;3.22;;;3.03;;
12976;SDS011;6553;48.412;9.514;2023-04-19T02:49:17;3.65;;;3.35;;
12976;SDS011;6553;48.412;9.514;2023-04-19T02:51:44;3.60;;;3.30;;
12976;SDS011;6553;48.412;9.514;2023-04-19T02:54:11;3.50;;;3.20;;
12976;SDS011;6553;48.412;9.514;2023-04-19T02:56:40;3.50;;;3.20;;
12976;SDS011;6553;48.412;9.514;2023-04-19T02:59:06;2.72;;;2.53;;
12976;SDS011;6553;48.412;9.514;2023-04-19T03:01:32;3.63;;;3.35;;
12976;SDS011;6553;48.412;9.514;2023-04-19T03:04:01;2.95;;;2.75;;
12976;SDS011;6553;48.412;9.514;2023-04-19T03:06:27;3.60;;;3.30;;
12976;SDS011;6553;48.412;9.514;2023-04-19T03:08:53;3.47;;;3.17;;
12976;SDS011;6553;48.412;9.514;2023-04-19T03:11:19;3.47;;;3.17;;
12976;SDS011;6553;48.412;9.514;2023-04-19T03:13:45;3.60;;;3.30;;
12976;SDS011;6553;48.412;9.514;2023-04-19T03:16:12;3.53;;;3.28;;
12976;SDS011;6553;48.412;9.514;2023-04-19T03:18:39;3.38;;;3.17;;
12976;SDS011;6553;48.412;9.514;2023-04-19T03:21:05;3.70;;;3.40;;
12976;SDS011;6553;48.412;9.514;2023-04-19T03:23:43;3.90;;;3.60;;
12976;SDS011;6553;48.412;9.514;2023-04-19T03:26:09;3.58;;;3.28;;
12976;SDS011;6553;48.412;9.514;2023-04-19T03:28:40;3.50;;;3.20;;
12976;SDS011;6553;48.412;9.514;2023-04-19T03:31:31;3.58;;;3.28;;
12976;SDS011;6553;48.412;9.514;2023-04-19T03:33:58;3.45;;;3.15;;
12976;SDS011;6553;48.412;9.514;2023-04-19T03:36:33;3.47;;;3.25;;
12976;SDS011;6553;48.412;9.514;2023-04-19T03:38:59;3.83;;;3.53;;
12976;SDS011;6553;48.412;9.514;2023-04-19T03:41:27;3.35;;;3.15;;
12976;SDS011;6553;48.412;9.514;2023-04-19T03:44:11;3.95;;;3.65;;
12976;SDS011;6553;48.412;9.514;2023-04-19T03:46:41;3.97;;;3.60;;
12976;SDS011;6553;48.412;9.514;2023-04-19T03:49:07;3.50;;;3.20;;
12976;SDS011;6553;48.412;9.514;2023-04-19T03:51:33;3.67;;;3.38;;
12976;SDS011;6553;48.412;9.514;2023-04-19T03:53:59;3.70;;;3.40;;
12976;SDS011;6553;48.412;9.514;2023-04-19T03:56:27;3.50;;;3.30;;
12976;SDS011;6553;48.412;9.514;2023-04-19T03:58:53;3.60;;;3.30;;
12976;SDS011;6553;48.412;9.514;2023-04-19T04:01:20;3.92;;;3.63;;
12976;SDS011;6553;48.412;9.514;2023-04-19T04:03:48;3.72;;;3.42;;
12976;SDS011;6553;48.412;9.514;2023-04-19T04:06:16;3.58;;;3.38;;
12976;SDS011;6553;48.412;9.514;2023-04-19T04:08:42;3.85;;;3.55;;
12976;SDS011;6553;48.412;9.514;2023-04-19T04:11:08;3.50;;;3.15;;
12976;SDS011;6553;48.412;9.514;2023-04-19T04:13:34;3.83;;;3.53;;
12976;SDS011;6553;48.412;9.514;2023-04-19T04:16:13;3.67;;;3.40;;
12976;SDS011;6553;48.412;9.514;2023-04-19T04:18:39;3.55;;;3.25;;
12976;SDS011;6553;48.412;9.514;2023-04-19T04:21:08;3.40;;;3.10;;
12976;SDS011;6553;48.412;9.514;2023-04-19T04:23:37;3.65;;;3.35;;
12976;SDS011;6553;48.412;9.514;2023-04-19T04:26:06;3.70;;;3.30;;
12976;SDS011;6553;48.412;9.514;2023-04-19T04:28:56;3.67;;;3.38;;
12976;SDS011;6553;48.412;9.514;2023-04-19T04:31:23;3.50;;;3.22;;
12976;SDS011;6553;48.412;9.514;2023-04-19T04:33:50;3.45;;;3.22;;
12976;SDS011;6553;48.412;9.514;2023-04-19T04:36:19;4.10;;;3.80;;
12976;SDS011;6553;48.412;9.514;2023-04-19T04:38:46;3.45;;;3.22;;
12976;SDS011;6553;48.412;9.514;2023-04-19T04:41:12;3.42;;;3.20;;
12976;SDS011;6553;48.412;9.514;2023-04-19T04:43:38;3.53;;;3.22;;
12976;SDS011;6553;48.412;9.514;2023-04-19T04:46:04;3.60;;;3.30;;
12976;SDS011;6553;48.412;9.514;2023-04-19T04:48:35;3.92;;;3.60;;
12976;SDS011;6553;48.412;9.514;2023-04-19T04:51:03;3.20;;;2.90;;
12976;SDS011;6553;48.412;9.514;2023-04-19T04:53:30;3.60;;;3.30;;
12976;SDS011;6553;48.412;9.514;2023-04-19T04:55:57;3.65;;;3.35;;
12976;SDS011;6553;48.412;9.514;2023-04-19T04:58:23;3.20;;;3.00;;
12976;SDS011;6553;48.412;9.514;2023-04-19T05:00:58;3.25;;;3.05;;
12976;SDS011;6553;48.412;9.514;2023-04-19T05:03:25;3.53;;;3.22;;
12976;SDS011;6553;48.412;9.514;2023-04-19T05:05:55;3.75;;;3.45;;
12976;SDS011;6553;48.412;9.514;2023-04-19T05:08:23;3.83;;;3.40;;
12976;SDS011;6553;48.412;9.514;2023-04-19T05:10:52;3.80;;;3.50;;
12976;SDS011;6553;48.412;9.514;2023-04-19T05:13:22;3.70;;;3.40;;
12976;SDS011;6553;48.412;9.514;2023-04-19T05:15:48;3.65;;;3.35;;
12976;SDS011;6553;48.412;9.514;2023-04-19T05:18:14;3.45;;;3.17;;
12976;SDS011;6553;48.412;9.514;2023-04-19T05:20:41;3.83;;;3.50;;
12976;SDS011;6553;48.412;9.514;2023-04-19T05:23:17;3.95;;;3.53;;
12976;SDS011;6553;48.412;9.514;2023-04-19T05:25:43;3.95;;;3.65;;
12976;SDS011;6553;48.412;9.514;2023-04-19T05:28:09;4.32;;;3.42;;
12976;SDS011;6553;48.412;9.514;2023-04-19T05:31:03;4.30;;;3.90;;
12976;SDS011;6553;48.412;9.514;2023-04-19T05:33:36;3.33;;;3.03;;
12976;SDS011;6553;48.412;9.514;2023-04-19T05:36:03;4.15;;;3.85;;
12976;SDS011;6553;48.412;9.514;2023-04-19T05:38:29;3.60;;;3.30;;
12976;SDS011;6553;48.412;9.514;2023-04-19T05:40:57;3.92;;;3.63;;
12976;SDS011;6553;48.412;9.514;2023-04-19T05:43:23;5.22;;;3.47;;
12976;SDS011;6553;48.412;9.514;2023-04-19T05:45:49;4.10;;;3.75;;
12976;SDS011;6553;48.412;9.514;2023-04-19T05:48:14;3.75;;;3.45;;
12976;SDS011;6553;48.412;9.514;2023-04-19T05:51:15;3.97;;;3.67;;
12976;SDS011;6553;48.412;9.514;2023-04-19T05:54:09;3.97;;;3.67;;
12976;SDS011;6553;48.412;9.514;2023-04-19T05:56:38;4.00;;;3.70;;
12976;SDS011;6553;48.412;9.514;2023-04-19T05:59:05;4.03;;;3.63;;
12976;SDS011;6553;48.412;9.514;2023-04-19T06:01:31;3.70;;;3.40;;
12976;SDS011;6553;48.412;9.514;2023-04-19T06:03:57;3.65;;;3.40;;
12976;SDS011;6553;48.412;9.514;2023-04-19T06:06:23;3.75;;;3.45;;
12976;SDS011;6553;48.412;9.514;2023-04-19T06:08:49;3.50;;;3.20;;
12976;SDS011;6553;48.412;9.514;2023-04-19T06:11:15;3.90;;;3.55;;
12976;SDS011;6553;48.412;9.514;2023-04-19T06:13:41;3.90;;;3.60;;
12976;SDS011;6553;48.412;9.514;2023-04-19T06:16:09;4.10;;;3.70;;
12976;SDS011;6553;48.412;9.514;2023-04-19T06:18:36;4.00;;;3.70;;
12976;SDS011;6553;48.412;9.514;2023-04-19T06:21:01;4.38;;;4.03;;
12976;SDS011;6553;48.412;9.514;2023-04-19T06:23:27;4.20;;;3.85;;
12976;SDS011;6553;48.412;9.514;2023-04-19T06:25:53;4.10;;;3.70;;
12976;SDS011;6553;48.412;9.514;2023-04-19T06:28:19;4.32;;;4.03;;
12976;SDS011;6553;48.412;9.514;2023-04-19T06:30:44;4.30;;;4.00;;
12976;SDS011;6553;48.412;9.514;2023-04-19T06:33:10;4.32;;;3.80;;
12976;SDS011;6553;48.412;9.514;2023-04-19T06:35:36;3.65;;;3.38;;
12976;SDS011;6553;48.412;9.514;2023-04-19T06:38:02;4.68;;;4.20;;
12976;SDS011;6553;48.412;9.514;2023-04-19T06:40:28;4.32;;;3.92;;
12976;SDS011;6553;48.412;9.514;2023-04-19T06:42:54;4.32;;;3.90;;
12976;SDS011;6553;48.412;9.514;2023-04-19T06:45:21;4.68;;;4.25;;
12976;SDS011;6553;48.412;9.514;2023-04-19T06:47:47;4.90;;;4.45;;
12976;SDS011;6553;48.412;9.514;2023-04-19T06:50:12;4.80;;;4.28;;
12976;SDS011;6553;48.412;9.514;2023-04-19T06:52:38;4.88;;;4.47;;
12976;SDS011;6553;48.412;9.514;2023-04-19T06:55:05;4.40;;;3.97;;
12976;SDS011;6553;48.412;9.514;2023-04-19T06:57:31;4.40;;;4.03;;
12976;SDS011;6553;48.412;9.514;2023-04-19T06:59:57;4.40;;;4.00;;
12976;SDS011;6553;48.412;9.514;2023-04-19T07:02:23;5.20;;;3.97;;
12976;SDS011;6553;48.412;9.514;2023-04-19T07:04:49;4.78;;;4.20;;
12976;SDS011;6553;48.412;9.514;2023-04-19T07:07:15;4.30;;;3.90;;
12976;SDS011;6553;48.412;9.514;2023-04-19T07:09:41;4.55;;;4.15;;
12976;SDS011;6553;48.412;9.514;2023-04-19T07:12:07;4.10;;;3.70;;
12976;SDS011;6553;48.412;9.514;2023-04-19T07:14:33;4.80;;;4.40;;
12976;SDS011;6553;48.412;9.514;2023-04-19T07:16:58;4.22;;;3.88;;
12976;SDS011;6553;48.412;9.514;2023-04-19T07:19:24;4.90;;;4.50;;
12976;SDS011;6553;48.412;9.514;2023-04-19T07:21:52;4.68;;;4.28;;
12976;SDS011;6553;48.412;9.514;2023-04-19T07:24:17;4.88;;;3.95;;
12976;SDS011;6553;48.412;9.514;2023-04-19T07:26:43;4.78;;;4.38;;
12976;SDS011;6553;48.412;9.514;2023-04-19T07:29:09;4.90;;;4.30;;
12976;SDS011;6553;48.412;9.514;2023-04-19T07:31:35;4.78;;;4.30;;
12976;SDS011;6553;48.412;9.514;2023-04-19T07:34:01;4.90;;;4.50;;
12976;SDS011;6553;48.412;9.514;2023-04-19T07:36:26;4.90;;;4.43;;
12976;SDS011;6553;48.412;9.514;2023-04-19T07:38:52;5.00;;;4.60;;
12976;SDS011;6553;48.412;9.514;2023-04-19T07:41:18;4.93;;;4.43;;
12976;SDS011;6553;48.412;9.514;2023-04-19T07:43:43;4.45;;;4.05;;
12976;SDS011;6553;48.412;9.514;2023-04-19T07:46:10;5.10;;;4.70;;
12976;SDS011;6553;48.412;9.514;2023-04-19T07:48:37;4.57;;;4.20;;
12976;SDS011;6553;48.412;9.514;2023-04-19T07:51:07;4.32;;;4.03;;
12976;SDS011;6553;48.412;9.514;2023-04-19T07:53:35;4.60;;;4.20;;
12976;SDS011;6553;48.412;9.514;2023-04-19T07:56:03;4.88;;;4.47;;
12976;SDS011;6553;48.412;9.514;2023-04-19T07:58:30;4.32;;;3.92;;
12976;SDS011;6553;48.412;9.514;2023-04-19T08:00:55;4.57;;;4.18;;
12976;SDS011;6553;48.412;9.514;2023-04-19T08:03:21;4.63;;;4.22;;
12976;SDS011;6553;48.412;9.514;2023-04-19T08:05:47;4.95;;;4.50;;
12976;SDS011;6553;48.412;9.514;2023-04-19T08:08:12;4.53;;;4.18;;
12976;SDS011;6553;48.412;9.514;2023-04-19T08:10:38;4.80;;;4.40;;
12976;SDS011;6553;48.412;9.514;2023-04-19T08:13:04;4.60;;;4.20;;
12976;SDS011;6553;48.412;9.514;2023-04-19T08:15:30;4.47;;;4.07;;
12976;SDS011;6553;48.412;9.514;2023-04-19T08:17:57;5.32;;;4.82;;
12976;SDS011;6553;48.412;9.514;2023-04-19T08:20:23;4.85;;;4.45;;
12976;SDS011;6553;48.412;9.514;2023-04-19T08:22:49;5.43;;;4.82;;
12976;SDS011;6553;48.412;9.514;2023-04-19T08:25:15;4.75;;;4.35;;
12976;SDS011;6553;48.412;9.514;2023-04-19T08:27:41;5.05;;;4.65;;
12976;SDS011;6553;48.412;9.514;2023-04-19T08:30:06;5.03;;;4.63;;
12976;SDS011;6553;48.412;9.514;2023-04-19T08:32:33;5.18;;;4.68;;
12976;SDS011;6553;48.412;9.514;2023-04-19T08:34:59;4.97;;;4.47;;
12976;SDS011;6553;48.412;9.514;2023-04-19T08:37:25;4.60;;;4.20;;
12976;SDS011;6553;48.412;9.514;2023-04-19T08:39:51;4.70;;;4.30;;
12976;SDS011;6553;48.412;9.514;2023-04-19T08:42:17;5.07;;;4.65;;
12976;SDS011;6553;48.412;9.514;2023-04-19T08:44:43;4.57;;;4.22;;
12976;SDS011;6553;48.412;9.514;2023-04-19T08:47:11;4.80;;;4.40;;
12976;SDS011;6553;48.412;9.514;2023-04-19T08:49:40;4.45;;;4.05;;
12976;SDS011;6553;48.412;9.514;2023-04-19T08:52:06;4.70;;;4.30;;
12976;SDS011;6553;48.412;9.514;2023-04-19T08:54:37;4.18;;;3.88;;
12976;SDS011;6553;48.412;9.514;2023-04-19T08:57:03;4.63;;;4.22;;
12976;SDS011;6553;48.412;9.514;2023-04-19T08:59:30;4.78;;;4.38;;
12976;SDS011;6553;48.412;9.514;2023-04-19T09:02:00;4.70;;;4.22;;
12976;SDS011;6553;48.412;9.514;2023-04-19T09:04:26;4.82;;;4.32;;
12976;SDS011;6553;48.412;9.514;2023-04-19T09:06:52;4.45;;;4.13;;
12976;SDS011;6553;48.412;9.514;2023-04-19T09:09:23;4.55;;;4.15;;
12976;SDS011;6553;48.412;9.514;2023-04-19T09:11:53;4.55;;;4.15;;
12976;SDS011;6553;48.412;9.514;2023-04-19T09:14:20;3.97;;;3.67;;
12976;SDS011;6553;48.412;9.514;2023-04-19T09:16:47;4.43;;;4.05;;
12976;SDS011;6553;48.412;9.514;2023-04-19T09:19:13;4.47;;;4.07;;
12976;SDS011;6553;48.412;9.514;2023-04-19T09:21:40;4.30;;;4.00;;
12976;SDS011;6553;48.412;9.514;2023-04-19T09:24:07;4.28;;;3.88;;
12976;SDS011;6553;48.412;9.514;2023-04-19T09:26:33;4.53;;;4.15;;
12976;SDS011;6553;48.412;9.514;2023-04-19T09:29:04;4.80;;;4.40;;
12976;SDS011;6553;48.412;9.514;2023-04-19T09:31:32;4.10;;;3.80;;
12976;SDS011;6553;48.412;9.514;2023-04-19T09:34:12;4.13;;;3.83;;
12976;SDS011;6553;48.412;9.514;2023-04-19T09:36:40;4.25;;;3.85;;
12976;SDS011;6553;48.412;9.514;2023-04-19T09:39:06;4.20;;;3.80;;
12976;SDS011;6553;48.412;9.514;2023-04-19T09:41:32;4.28;;;3.97;;
12976;SDS011;6553;48.412;9.514;2023-04-19T09:44:09;4.10;;;3.80;;
12976;SDS011;6553;48.412;9.514;2023-04-19T09:46:35;3.90;;;3.60;;
12976;SDS011;6553;48.412;9.514;2023-04-19T09:51:49;4.25;;;3.88;;
12976;SDS011;6553;48.412;9.514;2023-04-19T09:54:20;4.07;;;3.72;;
12976;SDS011;6553;48.412;9.514;2023-04-19T09:56:48;4.15;;;3.85;;
12976;SDS011;6553;48.412;9.514;2023-04-19T09:59:15;3.97;;;3.67;;
12976;SDS011;6553;48.412;9.514;2023-04-19T10:01:50;3.80;;;3.50;;
12976;SDS011;6553;48.412;9.514;2023-04-19T10:04:20;4.43;;;4.00;;
12976;SDS011;6553;48.412;9.514;2023-04-19T10:06:46;4.28;;;3.88;;
12976;SDS011;6553;48.412;9.514;2023-04-19T10:09:16;3.92;;;3.63;;
12976;SDS011;6553;48.412;9.514;2023-04-19T10:11:46;4.22;;;3.92;;
12976;SDS011;6553;48.412;9.514;2023-04-19T10:14:15;3.90;;;3.60;;
12976;SDS011;6553;48.412;9.514;2023-04-19T10:16:43;3.38;;;3.17;;
12976;SDS011;6553;48.412;9.514;2023-04-19T10:19:11;4.05;;;3.75;;
12976;SDS011;6553;48.412;9.514;2023-04-19T10:21:40;3.63;;;3.33;;
12976;SDS011;6553;48.412;9.514;2023-04-19T10:24:07;4.00;;;3.70;;
12976;SDS011;6553;48.412;9.514;2023-04-19T10:32:42;3.85;;;3.55;;
12976;SDS011;6553;48.412;9.514;2023-04-19T10:38:13;3.58;;;3.28;;
12976;SDS011;6553;48.412;9.514;2023-04-19T10:43:29;3.42;;;3.22;;
12976;SDS011;6553;48.412;9.514;2023-04-19T10:46:43;4.28;;;3.40;;
12976;SDS011;6553;48.412;9.514;2023-04-19T10:48:55;3.80;;;3.50;;
12976;SDS011;6553;48.412;9.514;2023-04-19T10:51:26;4.20;;;3.80;;
12976;SDS011;6553;48.412;9.514;2023-04-19T10:54:04;3.40;;;3.20;;
12976;SDS011;6553;48.412;9.514;2023-04-19T11:01:45;4.15;;;3.75;;
12976;SDS011;6553;48.412;9.514;2023-04-19T11:09:31;3.40;;;3.10;;
12976;SDS011;6553;48.412;9.514;2023-04-19T11:14:44;3.72;;;3.42;;
12976;SDS011;6553;48.412;9.514;2023-04-19T11:17:19;4.13;;;3.83;;
12976;SDS011;6553;48.412;9.514;2023-04-19T11:20:01;3.97;;;3.60;;
12976;SDS011;6553;48.412;9.514;2023-04-19T11:25:09;3.92;;;3.22;;
12976;SDS011;6553;48.412;9.514;2023-04-19T11:27:45;3.75;;;3.20;;
12976;SDS011;6553;48.412;9.514;2023-04-19T11:30:17;3.60;;;3.30;;
12976;SDS011;6553;48.412;9.514;2023-04-19T11:32:46;3.72;;;3.42;;
12976;SDS011;6553;48.412;9.514;2023-04-19T11:35:21;3.72;;;3.38;;
12976;SDS011;6553;48.412;9.514;2023-04-19T11:37:49;3.75;;;3.35;;
12976;SDS011;6553;48.412;9.514;2023-04-19T11:40:16;3.60;;;3.30;;
12976;SDS011;6553;48.412;9.514;2023-04-19T11:42:44;4.00;;;3.70;;
12976;SDS011;6553;48.412;9.514;2023-04-19T11:45:11;3.90;;;3.50;;
12976;SDS011;6553;48.412;9.514;2023-04-19T11:47:49;3.13;;;2.92;;
12976;SDS011;6553;48.412;9.514;2023-04-19T11:53:17;3.63;;;3.20;;
12976;SDS011;6553;48.412;9.514;2023-04-19T11:55:55;3.20;;;3.00;;
12976;SDS011;6553;48.412;9.514;2023-04-19T11:58:40;3.50;;;3.20;;
12976;SDS011;6553;48.412;9.514;2023-04-19T12:01:13;3.15;;;2.95;;
12976;SDS011;6553;48.412;9.514;2023-04-19T12:06:17;4.20;;;3.20;;
12976;SDS011;6553;48.412;9.514;2023-04-19T12:08:51;3.78;;;3.47;;
12976;SDS011;6553;48.412;9.514;2023-04-19T12:11:20;3.72;;;3.42;;
12976;SDS011;6553;48.412;9.514;2023-04-19T12:14:12;3.60;;;3.30;;
12976;SDS011;6553;48.412;9.514;2023-04-19T12:16:41;3.70;;;3.40;;
12976;SDS011;6553;48.412;9.514;2023-04-19T12:19:12;3.40;;;3.10;;
12976;SDS011;6553;48.412;9.514;2023-04-19T12:21:44;3.25;;;3.05;;
12976;SDS011;6553;48.412;9.514;2023-04-19T12:24:13;3.78;;;3.47;;
12976;SDS011;6553;48.412;9.514;2023-04-19T12:26:53;3.38;;;3.08;;
12976;SDS011;6553;48.412;9.514;2023-04-19T12:29:25;3.38;;;3.10;;
12976;SDS011;6553;48.412;9.514;2023-04-19T12:31:51;3.50;;;3.20;;
12976;SDS011;6553;48.412;9.514;2023-04-19T12:34:17;3.05;;;2.85;;
12976;SDS011;6553;48.412;9.514;2023-04-19T12:36:43;4.07;;;3.35;;
12976;SDS011;6553;48.412;9.514;2023-04-19T12:39:08;3.58;;;3.28;;
12976;SDS011;6553;48.412;9.514;2023-04-19T12:41:34;3.13;;;2.92;;
12976;SDS011;6553;48.412;9.514;2023-04-19T12:44:00;3.40;;;3.10;;
12976;SDS011;6553;48.412;9.514;2023-04-19T12:46:25;3.63;;;3.33;;
12976;SDS011;6553;48.412;9.514;2023-04-19T12:48:51;3.50;;;3.20;;
12976;SDS011;6553;48.412;9.514;2023-04-19T12:51:17;3.35;;;3.13;;
12976;SDS011;6553;48.412;9.514;2023-04-19T12:53:46;3.95;;;3.55;;
12976;SDS011;6553;48.412;9.514;2023-04-19T12:56:13;3.78;;;3.47;;
12976;SDS011;6553;48.412;9.514;2023-04-19T12:58:40;4.30;;;3.90;;
12976;SDS011;6553;48.412;9.514;2023-04-19T13:01:06;4.07;;;3.67;;
12976;SDS011;6553;48.412;9.514;2023-04-19T13:03:31;4.00;;;3.70;;
12976;SDS011;6553;48.412;9.514;2023-04-19T13:06:00;4.70;;;4.15;;
12976;SDS011;6553;48.412;9.514;2023-04-19T13:08:27;3.75;;;3.42;;
12976;SDS011;6553;48.412;9.514;2023-04-19T13:10:54;3.92;;;3.53;;
12976;SDS011;6553;48.412;9.514;2023-04-19T13:13:20;3.97;;;3.67;;
12976;SDS011;6553;48.412;9.514;2023-04-19T13:15:46;4.07;;;3.67;;
12976;SDS011;6553;48.412;9.514;2023-04-19T13:18:12;3.80;;;3.40;;
12976;SDS011;6553;48.412;9.514;2023-04-19T13:20:37;4.55;;;3.88;;
12976;SDS011;6553;48.412;9.514;2023-04-19T13:23:03;4.40;;;4.00;;
12976;SDS011;6553;48.412;9.514;2023-04-19T13:25:29;4.10;;;3.55;;
12976;SDS011;6553;48.412;9.514;2023-04-19T13:27:54;3.97;;;3.67;;
12976;SDS011;6553;48.412;9.514;2023-04-19T13:30:20;4.22;;;3.83;;
12976;SDS011;6553;48.412;9.514;2023-04-19T13:32:46;5.75;;;3.97;;
12976;SDS011;6553;48.412;9.514;2023-04-19T13:35:12;4.80;;;3.90;;
12976;SDS011;6553;48.412;9.514;2023-04-19T13:37:37;5.07;;;3.70;;
12976;SDS011;6553;48.412;9.514;2023-04-19T13:40:05;5.20;;;4.10;;
12976;SDS011;6553;48.412;9.514;2023-04-19T13:42:31;5.80;;;3.65;;
12976;SDS011;6553;48.412;9.514;2023-04-19T13:44:57;4.72;;;3.80;;
12976;SDS011;6553;48.412;9.514;2023-04-19T13:47:23;4.15;;;3.75;;
12976;SDS011;6553;48.412;9.514;2023-04-19T13:49:48;3.88;;;3.47;;
12976;SDS011;6553;48.412;9.514;2023-04-19T13:52:19;6.00;;;3.90;;
12976;SDS011;6553;48.412;9.514;2023-04-19T13:54:47;3.95;;;3.60;;
12976;SDS011;6553;48.412;9.514;2023-04-19T13:57:13;3.92;;;3.60;;
12976;SDS011;6553;48.412;9.514;2023-04-19T13:59:39;4.13;;;3.72;;
12976;SDS011;6553;48.412;9.514;2023-04-19T14:02:05;4.13;;;3.72;;
12976;SDS011;6553;48.412;9.514;2023-04-19T14:04:31;4.10;;;3.70;;
12976;SDS011;6553;48.412;9.514;2023-04-19T14:06:57;3.80;;;3.50;;
12976;SDS011;6553;48.412;9.514;2023-04-19T14:09:23;9.55;;;3.63;;
12976;SDS011;6553;48.412;9.514;2023-04-19T14:11:49;5.45;;;3.85;;
12976;SDS011;6553;48.412;9.514;2023-04-19T14:14:15;4.80;;;3.47;;
12976;SDS011;6553;48.412;9.514;2023-04-19T14:16:42;4.28;;;3.45;;
12976;SDS011;6553;48.412;9.514;2023-04-19T14:19:08;4.88;;;3.85;;
12976;SDS011;6553;48.412;9.514;2023-04-19T14:21:34;3.92;;;3.30;;
12976;SDS011;6553;48.412;9.514;2023-04-19T14:24:00;3.70;;;3.40;;
12976;SDS011;6553;48.412;9.514;2023-04-19T14:26:26;3.67;;;3.38;;
12976;SDS011;6553;48.412;9.514;2023-04-19T14:28:52;3.90;;;3.40;;
12976;SDS011;6553;48.412;9.514;2023-04-19T14:31:17;3.78;;;3.35;;
12976;SDS011;6553;48.412;9.514;2023-04-19T14:33:43;4.18;;;3.42;;
12976;SDS011;6553;48.412;9.514;2023-04-19T14:36:09;3.00;;;2.70;;
12976;SDS011;6553;48.412;9.514;2023-04-19T14:38:35;5.07;;;3.42;;
12976;SDS011;6553;48.412;9.514;2023-04-19T14:41:00;3.85;;;3.45;;
12976;SDS011;6553;48.412;9.514;2023-04-19T14:43:27;3.95;;;3.50;;
12976;SDS011;6553;48.412;9.514;2023-04-19T14:45:53;3.90;;;3.53;;
12976;SDS011;6553;48.412;9.514;2023-04-19T14:48:20;3.40;;;3.08;;
12976;SDS011;6553;48.412;9.514;2023-04-19T14:50:46;3.45;;;3.15;;
12976;SDS011;6553;48.412;9.514;2023-04-19T14:53:12;3.88;;;3.38;;
12976;SDS011;6553;48.412;9.514;2023-04-19T14:55:38;4.10;;;3.58;;
12976;SDS011;6553;48.412;9.514;2023-04-19T14:58:04;3.80;;;3.50;;
12976;SDS011;6553;48.412;9.514;2023-04-19T15:00:30;3.55;;;3.25;;
12976;SDS011;6553;48.412;9.514;2023-04-19T15:02:57;3.50;;;3.15;;
12976;SDS011;6553;48.412;9.514;2023-04-19T15:05:24;3.35;;;3.05;;
12976;SDS011;6553;48.412;9.514;2023-04-19T15:07:53;3.20;;;2.90;;
12976;SDS011;6553;48.412;9.514;2023-04-19T15:10:19;3.78;;;3.40;;
12976;SDS011;6553;48.412;9.514;2023-04-19T15:12:45;3.80;;;3.50;;
12976;SDS011;6553;48.412;9.514;2023-04-19T15:15:10;3.40;;;3.20;;
12976;SDS011;6553;48.412;9.514;2023-04-19T15:17:36;3.78;;;3.40;;
12976;SDS011;6553;48.412;9.514;2023-04-19T15:20:02;3.60;;;3.30;;
12976;SDS011;6553;48.412;9.514;2023-04-19T15:22:31;4.10;;;3.28;;
12976;SDS011;6553;48.412;9.514;2023-04-19T15:24:59;3.28;;;2.88;;
12976;SDS011;6553;48.412;9.514;2023-04-19T15:27:25;3.85;;;3.20;;
12976;SDS011;6553;48.412;9.514;2023-04-19T15:29:52;3.35;;;3.05;;
12976;SDS011;6553;48.412;9.514;2023-04-19T15:32:17;3.67;;;3.20;;
12976;SDS011;6553;48.412;9.514;2023-04-19T15:34:43;3.80;;;3.47;;
12976;SDS011;6553;48.412;9.514;2023-04-19T15:37:09;3.58;;;3.10;;
12976;SDS011;6553;48.412;9.514;2023-04-19T15:39:35;3.50;;;3.20;;